Time;durP1;ratioP1;P1;durP2;ratioP2;P2;SDS_P1;SDS_P2;PMS_P1;PMS_P2;Temp;Humidity;BMP_temperature;BMP_pressure;BME280_temperature;BME280_humidity;BME280_pressure;Samples;Min_cycle;Max_cycle;Signal;HPM_P1;HPM_P2
2022/01/01 00:02:03;;;;;;;4.82;2.25;;;10.30;99.90;;;;;;5074366;28;20041;-85
2022/01/01 00:04:29;;;;;;;2.30;1.67;;;10.30;99.90;;;;;;5059820;28;20041;-86
2022/01/01 00:06:54;;;;;;;7.03;3.00;;;10.30;99.90;;;;;;5055393;28;20102;-86
2022/01/01 00:09:20;;;;;;;3.40;2.17;;;10.20;99.90;;;;;;5059320;28;20041;-85
2022/01/01 00:11:45;;;;;;;2.03;1.90;;;10.30;99.90;;;;;;5058052;28;20052;-86
2022/01/01 00:14:11;;;;;;;1.90;1.65;;;10.30;99.90;;;;;;5059426;28;20071;-87
2022/01/01 00:16:37;;;;;;;5.65;3.60;;;10.30;99.90;;;;;;5058214;28;20063;-86
2022/01/01 00:19:02;;;;;;;6.00;4.25;;;10.30;99.90;;;;;;5057720;28;20033;-85
2022/01/01 00:21:28;;;;;;;2.72;2.35;;;10.30;99.90;;;;;;5056332;28;20121;-86
2022/01/01 00:23:53;;;;;;;2.13;1.10;;;10.30;99.90;;;;;;5042429;28;20056;-86
2022/01/01 00:26:19;;;;;;;4.25;3.67;;;10.30;99.90;;;;;;5053706;28;20041;-86
2022/01/01 00:28:45;;;;;;;3.80;3.08;;;10.40;99.90;;;;;;5062483;28;20199;-85
2022/01/01 00:31:10;;;;;;;2.72;1.80;;;10.40;99.90;;;;;;5057774;28;20041;-85
2022/01/01 00:33:36;;;;;;;1.30;1.15;;;10.30;99.90;;;;;;5057823;28;20049;-85
2022/01/01 00:36:02;;;;;;;10.75;2.83;;;10.40;99.90;;;;;;5065489;28;20094;-86
2022/01/01 00:38:28;;;;;;;1.55;1.45;;;10.20;99.90;;;;;;5062429;28;20446;-85
2022/01/01 00:40:53;;;;;;;2.72;2.50;;;10.30;99.90;;;;;;5061212;28;20053;-86
2022/01/01 00:43:19;;;;;;;17.85;1.35;;;10.30;99.90;;;;;;5062537;28;20088;-86
2022/01/01 00:45:44;;;;;;;17.10;2.40;;;10.30;99.90;;;;;;5043806;28;20111;-85
2022/01/01 00:48:10;;;;;;;1.92;1.77;;;10.30;99.90;;;;;;5045065;28;20374;-86
2022/01/01 00:50:36;;;;;;;6.90;1.48;;;10.30;99.90;;;;;;5055509;28;20493;-85
2022/01/01 00:53:02;;;;;;;1.63;1.52;;;10.30;99.90;;;;;;5069335;28;20037;-86
2022/01/01 00:55:28;;;;;;;0.80;0.80;;;10.30;99.90;;;;;;5052552;28;20044;-86
2022/01/01 00:57:53;;;;;;;1.58;1.48;;;10.30;99.90;;;;;;5061266;28;20071;-86
2022/01/01 01:00:19;;;;;;;2.25;2.05;;;10.20;99.90;;;;;;5044886;28;20075;-86
2022/01/01 01:02:44;;;;;;;0.93;0.93;;;10.20;99.90;;;;;;5043990;28;20057;-86
2022/01/01 01:05:10;;;;;;;4.32;1.48;;;10.20;99.90;;;;;;5049115;28;20481;-86
2022/01/01 01:07:36;;;;;;;1.45;1.30;;;10.20;99.90;;;;;;5061153;28;20039;-86
2022/01/01 01:10:03;;;;;;;1.63;1.52;;;10.10;99.90;;;;;;5060304;28;20044;-86
2022/01/01 01:12:38;;;;;;;0.98;0.93;;;10.10;99.90;;;;;;5060593;28;20052;-86
2022/01/01 01:15:04;;;;;;;2.47;1.83;;;10.00;99.90;;;;;;5061714;28;20091;-86
2022/01/01 01:17:30;;;;;;;1.45;1.35;;;9.90;99.90;;;;;;5076573;28;20037;-86
2022/01/01 01:19:56;;;;;;;3.90;1.92;;;9.90;99.90;;;;;;5073786;28;20045;-85
2022/01/01 01:22:21;;;;;;;0.90;0.90;;;9.80;99.90;;;;;;5044727;28;20117;-86
2022/01/01 01:24:47;;;;;;;1.27;1.17;;;9.80;99.90;;;;;;5045016;28;20057;-86
2022/01/01 01:27:12;;;;;;;2.08;1.92;;;9.70;99.90;;;;;;5060102;28;20120;-86
2022/01/01 01:29:42;;;;;;;1.88;1.77;;;9.70;99.90;;;;;;5052199;28;20040;-86
2022/01/01 01:32:08;;;;;;;1.58;1.50;;;9.60;99.90;;;;;;5056110;28;20041;-86
2022/01/01 01:34:33;;;;;;;2.28;2.08;;;9.60;99.90;;;;;;5072038;28;20064;-86
2022/01/01 01:36:59;;;;;;;7.40;2.88;;;9.60;99.90;;;;;;5071725;28;20040;-86
2022/01/01 01:39:24;;;;;;;0.98;0.98;;;9.50;99.90;;;;;;5057326;28;20086;-86
2022/01/01 01:41:55;;;;;;;0.98;0.93;;;9.60;99.90;;;;;;5077293;28;20041;-86
2022/01/01 01:44:37;;;;;;;0.93;0.93;;;9.60;99.90;;;;;;5049356;28;20037;-85
2022/01/01 01:47:12;;;;;;;1.70;1.60;;;9.50;99.90;;;;;;5051736;28;20044;-86
2022/01/01 01:49:38;;;;;;;1.00;0.90;;;9.50;99.90;;;;;;5075760;28;20033;-85
2022/01/01 01:52:04;;;;;;;1.30;1.20;;;9.60;99.90;;;;;;5075238;28;20112;-85
2022/01/01 01:54:30;;;;;;;7.47;2.03;;;9.60;99.90;;;;;;5056248;28;20072;-86
2022/01/01 01:57:00;;;;;;;2.75;1.60;;;9.60;99.90;;;;;;5056872;28;20049;-86
2022/01/01 01:59:30;;;;;;;8.60;1.88;;;9.70;99.90;;;;;;5045233;28;20056;-87
2022/01/01 02:01:56;;;;;;;3.10;1.45;;;9.60;99.90;;;;;;5038568;28;20147;-87
2022/01/01 02:04:21;;;;;;;16.52;1.55;;;9.70;99.90;;;;;;5042676;28;20136;-86
2022/01/01 02:06:48;;;;;;;1.77;1.50;;;9.80;99.90;;;;;;5043751;28;20048;-85
2022/01/01 02:09:14;;;;;;;1.63;1.27;;;9.80;99.90;;;;;;5044655;28;20071;-85
2022/01/01 02:11:41;;;;;;;1.52;1.00;;;9.80;99.90;;;;;;5055139;28;20619;-84
2022/01/01 02:14:20;;;;;;;3.33;2.25;;;9.80;99.90;;;;;;5040910;28;20040;-86
2022/01/01 02:17:09;;;;;;;2.88;2.33;;;9.80;99.90;;;;;;5055403;28;20045;-85
2022/01/01 02:19:49;;;;;;;4.45;1.27;;;9.90;99.90;;;;;;5038721;28;20113;-85
2022/01/01 02:22:15;;;;;;;1.90;1.38;;;9.90;99.90;;;;;;5058787;28;20124;-85
2022/01/01 02:24:41;;;;;;;5.55;3.15;;;9.90;99.90;;;;;;5060032;28;20037;-85
2022/01/01 02:27:06;;;;;;;4.47;1.85;;;10.00;99.90;;;;;;5073100;28;20029;-86
2022/01/01 02:29:32;;;;;;;1.85;1.58;;;10.00;99.90;;;;;;5071922;28;20080;-84
2022/01/01 02:31:59;;;;;;;7.68;3.50;;;10.00;99.90;;;;;;5058215;28;20052;-84
2022/01/01 02:34:25;;;;;;;1.15;1.10;;;10.00;99.90;;;;;;5058521;28;20051;-84
2022/01/01 02:36:50;;;;;;;6.80;2.38;;;10.00;99.90;;;;;;5065696;28;20037;-84
2022/01/01 02:39:21;;;;;;;3.88;1.98;;;10.10;99.90;;;;;;5061109;28;20267;-85
2022/01/01 02:41:50;;;;;;;2.05;1.88;;;10.10;99.90;;;;;;5042566;28;20140;-87
2022/01/01 02:44:15;;;;;;;1.25;1.15;;;10.10;99.90;;;;;;5043766;28;20086;-85
2022/01/01 02:46:41;;;;;;;2.33;2.13;;;10.10;99.90;;;;;;5052276;28;20041;-86
2022/01/01 02:49:07;;;;;;;1.40;1.20;;;10.10;99.90;;;;;;5054406;28;20060;-86
2022/01/01 02:51:33;;;;;;;4.20;3.40;;;10.00;99.90;;;;;;5043088;28;20056;-85
2022/01/01 02:53:59;;;;;;;3.17;2.88;;;10.10;99.90;;;;;;5060146;28;20374;-85
2022/01/01 02:56:25;;;;;;;2.30;1.83;;;10.10;99.90;;;;;;5053000;28;20037;-86
2022/01/01 02:58:52;;;;;;;3.50;3.20;;;10.10;99.90;;;;;;5042417;28;20124;-87
2022/01/01 03:01:18;;;;;;;4.10;2.88;;;10.10;99.90;;;;;;5058903;28;20037;-85
2022/01/01 03:03:44;;;;;;;3.90;3.58;;;10.10;99.90;;;;;;5042582;28;20072;-84
2022/01/01 03:06:10;;;;;;;4.43;2.17;;;10.20;99.90;;;;;;5045567;28;20049;-86
2022/01/01 03:08:36;;;;;;;16.80;2.10;;;10.20;99.90;;;;;;5042906;28;20048;-86
2022/01/01 03:11:02;;;;;;;1.80;1.50;;;10.10;99.90;;;;;;5059330;28;20077;-85
2022/01/01 03:13:31;;;;;;;2.70;1.77;;;10.10;99.90;;;;;;5058630;28;20176;-84
2022/01/01 03:15:57;;;;;;;5.43;2.70;;;10.20;99.90;;;;;;5042234;28;20029;-88
2022/01/01 03:18:23;;;;;;;2.17;1.85;;;10.20;99.90;;;;;;5053043;28;20080;-86
2022/01/01 03:20:48;;;;;;;4.20;3.80;;;10.20;99.90;;;;;;5052938;28;20040;-86
2022/01/01 03:23:14;;;;;;;2.38;2.17;;;10.10;99.90;;;;;;5058540;28;20124;-87
2022/01/01 03:25:40;;;;;;;2.38;2.17;;;10.10;99.90;;;;;;5055258;28;20053;-85
2022/01/01 03:28:05;;;;;;;3.20;2.63;;;10.10;99.90;;;;;;5053741;28;20063;-86
2022/01/01 03:30:31;;;;;;;4.13;2.65;;;10.10;99.90;;;;;;5053627;28;20064;-85
2022/01/01 03:32:57;;;;;;;6.35;2.50;;;10.10;99.90;;;;;;5040123;28;20486;-85
2022/01/01 03:35:23;;;;;;;4.40;3.97;;;10.20;99.90;;;;;;5042888;28;20135;-86
2022/01/01 03:37:48;;;;;;;7.65;3.95;;;10.20;99.90;;;;;;5070396;28;20040;-87
2022/01/01 03:40:14;;;;;;;4.38;3.28;;;10.20;99.90;;;;;;5042122;28;20049;-85
2022/01/01 03:42:39;;;;;;;3.42;2.65;;;10.10;99.90;;;;;;5068692;28;20045;-87
2022/01/01 03:45:07;;;;;;;16.70;2.45;;;10.10;99.90;;;;;;5042882;28;20045;-87
2022/01/01 03:47:33;;;;;;;1.75;1.65;;;10.10;99.90;;;;;;5041210;28;20091;-86
2022/01/01 03:49:59;;;;;;;8.85;4.32;;;10.10;99.90;;;;;;5048742;28;20046;-86
2022/01/01 03:52:24;;;;;;;1.77;1.67;;;10.10;99.90;;;;;;5043268;28;20106;-85
2022/01/01 03:54:50;;;;;;;1.67;1.58;;;10.10;99.90;;;;;;5056211;28;20198;-86
2022/01/01 03:57:16;;;;;;;3.53;2.60;;;10.10;99.90;;;;;;5060997;28;20155;-86
2022/01/01 03:59:42;;;;;;;1.70;1.45;;;10.10;99.90;;;;;;5038957;28;20113;-85
2022/01/01 04:02:07;;;;;;;3.50;2.05;;;10.10;99.90;;;;;;5058825;28;20045;-86
2022/01/01 04:04:33;;;;;;;2.97;2.35;;;10.10;99.90;;;;;;5058196;28;20055;-86
2022/01/01 04:07:00;;;;;;;1.50;1.23;;;10.10;99.90;;;;;;5062532;28;20055;-86
2022/01/01 04:09:26;;;;;;;2.60;2.25;;;10.10;99.90;;;;;;5063488;28;20049;-86
2022/01/01 04:11:51;;;;;;;1.45;1.33;;;10.10;99.90;;;;;;5062327;28;20037;-86
2022/01/01 04:14:17;;;;;;;8.27;2.00;;;10.10;99.90;;;;;;5043417;28;20082;-85
2022/01/01 04:16:44;;;;;;;0.93;0.93;;;10.00;99.90;;;;;;5056431;28;20037;-86
2022/01/01 04:19:10;;;;;;;3.60;2.53;;;10.00;99.90;;;;;;5062201;28;20047;-86
2022/01/01 04:21:35;;;;;;;5.70;2.20;;;10.00;99.90;;;;;;5045647;28;20041;-85
2022/01/01 04:24:02;;;;;;;7.57;2.53;;;10.10;99.90;;;;;;5062625;28;20397;-86
2022/01/01 04:26:28;;;;;;;1.92;1.63;;;10.10;99.90;;;;;;5045829;28;20049;-85
2022/01/01 04:28:53;;;;;;;3.88;2.20;;;10.10;99.90;;;;;;5043898;28;20055;-85
2022/01/01 04:31:19;;;;;;;1.30;1.20;;;10.10;99.90;;;;;;5073213;28;20041;-85
2022/01/01 04:33:45;;;;;;;3.15;1.60;;;10.00;99.90;;;;;;5059390;28;20041;-85
2022/01/01 04:36:11;;;;;;;2.63;2.38;;;10.00;99.90;;;;;;5051107;28;20049;-85
2022/01/01 04:38:39;;;;;;;2.33;2.17;;;10.00;99.90;;;;;;5045761;28;20052;-85
2022/01/01 04:41:13;;;;;;;2.42;2.22;;;10.00;99.90;;;;;;5046837;28;20045;-86
2022/01/01 04:43:40;;;;;;;;;;;10.00;99.90;;;;;;5046178;28;20482;-86
2022/01/01 04:46:06;;;;;;;1.52;1.42;;;10.00;99.90;;;;;;5061553;28;19924;-85
2022/01/01 04:48:32;;;;;;;2.05;1.13;;;10.00;99.90;;;;;;5045186;28;20051;-85
2022/01/01 04:50:57;;;;;;;1.15;1.10;;;10.00;99.90;;;;;;5043998;28;20483;-86
2022/01/01 04:53:23;;;;;;;3.38;3.08;;;9.90;99.90;;;;;;5056777;28;20040;-85
2022/01/01 04:55:50;;;;;;;4.03;2.63;;;10.00;99.90;;;;;;5054260;28;20486;-86
2022/01/01 04:58:16;;;;;;;4.10;3.53;;;10.00;99.90;;;;;;5042823;28;20056;-86
2022/01/01 05:00:42;;;;;;;2.25;2.05;;;10.00;99.90;;;;;;5061548;28;20104;-85
2022/01/01 05:03:08;;;;;;;8.80;2.92;;;10.00;99.90;;;;;;5042923;28;20060;-86
2022/01/01 05:05:33;;;;;;;2.72;2.00;;;10.00;99.90;;;;;;5060843;28;20506;-86
2022/01/01 05:07:59;;;;;;;2.85;2.33;;;10.00;99.90;;;;;;5044410;28;20130;-86
2022/01/01 05:10:25;;;;;;;2.95;1.83;;;10.00;99.90;;;;;;5052241;28;20878;-86
2022/01/01 05:12:51;;;;;;;4.70;2.88;;;10.00;99.90;;;;;;5060538;28;20029;-86
2022/01/01 05:15:17;;;;;;;3.53;1.90;;;10.10;99.90;;;;;;5052164;28;20037;-87
2022/01/01 05:17:42;;;;;;;3.13;2.42;;;10.10;99.90;;;;;;5074730;28;20044;-86
2022/01/01 05:20:08;;;;;;;2.40;1.80;;;10.10;99.90;;;;;;5044005;28;20083;-86
2022/01/01 05:22:34;;;;;;;2.80;2.55;;;10.10;99.90;;;;;;5070250;28;20079;-86
2022/01/01 05:25:00;;;;;;;2.30;1.88;;;10.10;99.90;;;;;;5044275;28;20040;-86
2022/01/01 05:27:27;;;;;;;5.72;3.90;;;10.10;99.90;;;;;;5043492;28;20040;-86
2022/01/01 05:29:53;;;;;;;2.63;2.35;;;10.10;99.90;;;;;;5071766;28;20051;-85
2022/01/01 05:32:18;;;;;;;6.13;3.25;;;10.20;99.90;;;;;;5042842;28;20068;-85
2022/01/01 05:34:44;;;;;;;5.60;2.75;;;10.20;99.90;;;;;;5045422;28;20040;-85
2022/01/01 05:37:10;;;;;;;3.35;3.05;;;10.30;99.90;;;;;;5060813;28;20040;-85
2022/01/01 05:39:35;;;;;;;10.50;4.10;;;10.30;99.90;;;;;;5042254;28;20049;-86
2022/01/01 05:42:01;;;;;;;5.57;3.38;;;10.40;99.90;;;;;;5060131;28;20078;-85
2022/01/01 05:44:27;;;;;;;1.98;1.55;;;10.30;99.90;;;;;;5054343;28;20052;-85
2022/01/01 05:46:53;;;;;;;3.15;2.50;;;10.40;99.90;;;;;;5050503;28;20124;-86
2022/01/01 05:49:19;;;;;;;14.50;3.53;;;10.30;99.90;;;;;;5061347;28;20059;-86
2022/01/01 05:51:45;;;;;;;3.10;2.55;;;10.30;99.90;;;;;;5072156;28;20041;-86
2022/01/01 05:54:11;;;;;;;2.58;2.15;;;10.30;99.90;;;;;;5060935;28;20044;-85
2022/01/01 05:56:36;;;;;;;4.07;3.72;;;10.20;99.90;;;;;;5059141;28;20102;-86
2022/01/01 05:59:02;;;;;;;6.22;3.30;;;10.20;99.90;;;;;;5060030;28;20729;-85
2022/01/01 06:01:28;;;;;;;15.52;2.22;;;10.20;99.90;;;;;;5075363;28;20127;-85
2022/01/01 06:03:53;;;;;;;2.60;2.00;;;10.20;99.90;;;;;;5056945;28;20080;-86
2022/01/01 06:06:19;;;;;;;1.92;1.20;;;10.20;99.90;;;;;;5060319;28;20044;-85
2022/01/01 06:08:44;;;;;;;2.25;2.05;;;10.20;99.90;;;;;;5054536;28;20041;-86
2022/01/01 06:11:10;;;;;;;37.13;2.58;;;10.30;99.90;;;;;;5059840;28;20105;-86
2022/01/01 06:13:42;;;;;;;2.50;1.80;;;10.20;99.90;;;;;;5043296;28;20089;-87
2022/01/01 06:16:11;;;;;;;1.80;1.67;;;10.20;99.90;;;;;;5059894;28;20045;-86
2022/01/01 06:18:36;;;;;;;2.35;1.80;;;10.20;99.90;;;;;;5057088;28;20037;-86
2022/01/01 06:21:03;;;;;;;2.22;1.70;;;10.20;99.90;;;;;;5054907;28;20041;-86
2022/01/01 06:23:29;;;;;;;2.30;2.03;;;10.20;99.90;;;;;;5049108;28;20091;-85
2022/01/01 06:25:54;;;;;;;4.22;1.63;;;10.20;99.90;;;;;;5042821;28;20044;-86
2022/01/01 06:28:20;;;;;;;1.92;1.50;;;10.10;99.90;;;;;;5059925;28;20037;-85
2022/01/01 06:30:46;;;;;;;1.90;1.77;;;10.10;99.90;;;;;;5058262;28;20243;-86
2022/01/01 06:33:14;;;;;;;1.27;1.15;;;10.10;99.90;;;;;;5053778;28;20041;-86
2022/01/01 06:35:45;;;;;;;0.95;0.95;;;10.20;99.90;;;;;;5035213;28;20048;-85
2022/01/01 06:38:12;;;;;;;2.22;1.98;;;10.20;99.90;;;;;;5068904;28;20048;-86
2022/01/01 06:40:40;;;;;;;2.13;1.40;;;10.20;99.90;;;;;;5041023;28;20041;-85
2022/01/01 06:43:07;;;;;;;1.20;1.13;;;10.20;99.90;;;;;;5059541;28;20075;-85
2022/01/01 06:45:33;;;;;;;4.72;2.97;;;10.20;99.90;;;;;;5060344;28;20089;-86
2022/01/01 06:47:58;;;;;;;1.48;1.35;;;10.20;99.90;;;;;;5052632;28;20033;-85
2022/01/01 06:50:24;;;;;;;1.30;1.00;;;10.20;99.90;;;;;;5059415;28;20109;-86
2022/01/01 06:52:49;;;;;;;0.93;0.90;;;10.30;99.90;;;;;;5048372;28;20040;-85
2022/01/01 06:55:16;;;;;;;1.50;1.40;;;10.20;99.90;;;;;;5042806;28;20638;-85
2022/01/01 06:57:42;;;;;;;2.33;1.95;;;10.20;99.90;;;;;;5033930;28;20446;-84
2022/01/01 07:00:09;;;;;;;2.50;2.25;;;10.30;99.90;;;;;;5038460;28;20041;-85
2022/01/01 07:02:39;;;;;;;2.00;1.73;;;10.30;99.90;;;;;;5041217;28;20136;-84
2022/01/01 07:05:06;;;;;;;1.50;1.35;;;10.30;99.90;;;;;;5058245;28;20045;-85
2022/01/01 07:07:35;;;;;;;1.17;1.08;;;10.30;99.90;;;;;;5065001;28;20052;-86
2022/01/01 07:10:02;;;;;;;1.33;1.25;;;10.30;99.90;;;;;;5040515;28;20091;-85
2022/01/01 07:12:28;;;;;;;1.25;1.15;;;10.30;99.90;;;;;;5058683;28;20335;-85
2022/01/01 07:14:53;;;;;;;0.70;0.70;;;10.30;99.90;;;;;;5075435;28;20071;-86
2022/01/01 07:17:19;;;;;;;0.80;0.80;;;10.20;99.90;;;;;;5039060;28;20048;-86
2022/01/01 07:19:44;;;;;;;6.32;2.25;;;10.30;99.90;;;;;;5055385;28;20059;-85
2022/01/01 07:22:10;;;;;;;1.33;1.25;;;10.30;99.90;;;;;;5042197;28;20068;-86
2022/01/01 07:24:35;;;;;;;0.85;0.85;;;10.30;99.90;;;;;;5059017;28;20072;-85
2022/01/01 07:27:01;;;;;;;3.75;1.60;;;10.30;99.90;;;;;;5056795;28;20091;-85
2022/01/01 07:29:26;;;;;;;3.75;1.75;;;10.30;99.90;;;;;;5058506;28;20071;-85
2022/01/01 07:31:53;;;;;;;1.20;1.10;;;10.30;99.90;;;;;;5057395;28;20044;-86
2022/01/01 07:34:21;;;;;;;1.05;0.90;;;10.30;99.90;;;;;;5045989;28;21203;-85
2022/01/01 07:36:47;;;;;;;0.63;0.63;;;10.30;99.90;;;;;;5045697;28;20041;-85
2022/01/01 07:39:13;;;;;;;0.90;0.90;;;10.30;99.90;;;;;;5050885;28;20097;-85
2022/01/01 07:41:39;;;;;;;2.58;1.33;;;10.40;99.90;;;;;;5044888;28;20044;-85
2022/01/01 07:44:05;;;;;;;3.50;1.60;;;10.40;99.90;;;;;;5046092;28;20044;-86
2022/01/01 07:46:31;;;;;;;1.73;1.60;;;10.40;99.90;;;;;;5045380;28;20044;-84
2022/01/01 07:48:57;;;;;;;1.10;1.05;;;10.40;99.90;;;;;;5046312;28;20044;-85
2022/01/01 07:51:22;;;;;;;0.88;0.88;;;10.40;99.90;;;;;;5058926;28;20103;-85
2022/01/01 07:53:48;;;;;;;1.33;1.10;;;10.40;99.90;;;;;;5057533;28;20056;-85
2022/01/01 07:56:13;;;;;;;2.22;1.77;;;10.40;99.90;;;;;;5045937;28;20045;-85
2022/01/01 07:58:39;;;;;;;0.70;0.70;;;10.40;99.90;;;;;;5073159;28;20033;-84
2022/01/01 08:01:04;;;;;;;0.80;0.80;;;10.40;99.90;;;;;;5044738;28;20667;-84
2022/01/01 08:03:30;;;;;;;1.90;1.80;;;10.50;99.90;;;;;;5059252;28;20119;-86
2022/01/01 08:05:55;;;;;;;3.20;0.73;;;10.50;99.90;;;;;;5076957;28;20425;-85
2022/01/01 08:08:22;;;;;;;2.15;1.35;;;10.50;99.90;;;;;;5060552;28;20041;-86
2022/01/01 08:10:48;;;;;;;2.65;1.45;;;10.50;99.90;;;;;;5058622;28;20076;-86
2022/01/01 08:13:22;;;;;;;1.25;1.00;;;10.60;99.90;;;;;;5062500;28;20048;-86
2022/01/01 08:15:47;;;;;;;;;;;10.60;99.90;;;;;;5055892;28;20044;-86
2022/01/01 08:18:13;;;;;;;1.90;1.65;;;10.60;99.90;;;;;;5041009;28;19931;-85
2022/01/01 08:20:38;;;;;;;3.70;1.52;;;10.70;99.90;;;;;;5059799;28;20039;-85
2022/01/01 08:23:04;;;;;;;2.83;2.15;;;10.70;99.90;;;;;;5062080;28;20370;-85
2022/01/01 08:25:30;;;;;;;0.98;0.90;;;10.70;99.90;;;;;;5060393;28;20079;-84
2022/01/01 08:27:55;;;;;;;1.05;0.75;;;10.70;99.90;;;;;;5057530;28;20049;-85
2022/01/01 08:30:21;;;;;;;0.93;0.90;;;10.70;99.90;;;;;;5039163;28;20048;-84
2022/01/01 08:32:46;;;;;;;2.97;1.85;;;10.80;99.90;;;;;;5061024;28;20063;-84
2022/01/01 08:35:12;;;;;;;6.78;1.17;;;10.80;99.90;;;;;;5044522;28;20065;-84
2022/01/01 08:37:38;;;;;;;1.50;1.05;;;10.80;99.90;;;;;;5061885;28;20047;-84
2022/01/01 08:40:05;;;;;;;5.00;1.08;;;10.80;99.90;;;;;;5062481;28;20136;-84
2022/01/01 08:42:31;;;;;;;1.13;1.02;;;10.80;99.90;;;;;;5045306;28;20040;-85
2022/01/01 08:44:56;;;;;;;0.88;0.88;;;10.80;99.90;;;;;;5060865;28;20071;-84
2022/01/01 08:47:25;;;;;;;1.38;1.17;;;10.80;99.90;;;;;;5060244;28;20056;-83
2022/01/01 08:49:54;;;;;;;1.67;1.05;;;10.80;99.90;;;;;;5045499;28;20041;-83
2022/01/01 08:52:20;;;;;;;0.70;0.70;;;10.90;99.90;;;;;;5058627;28;20037;-83
2022/01/01 08:54:45;;;;;;;1.77;1.50;;;10.90;99.90;;;;;;5056532;28;20065;-84
2022/01/01 08:57:11;;;;;;;0.60;0.60;;;10.90;99.90;;;;;;5061608;28;20037;-83
2022/01/01 08:59:37;;;;;;;1.40;1.33;;;10.90;99.90;;;;;;5061806;28;20125;-84
2022/01/01 09:02:03;;;;;;;13.98;1.25;;;10.90;99.90;;;;;;5060169;28;20037;-83
2022/01/01 09:04:28;;;;;;;0.95;0.95;;;10.90;99.90;;;;;;5061639;28;20513;-83
2022/01/01 09:06:54;;;;;;;0.70;0.70;;;10.90;99.90;;;;;;5061399;28;20061;-83
2022/01/01 09:09:20;;;;;;;1.75;1.63;;;11.00;99.90;;;;;;5075368;28;20060;-83
2022/01/01 09:11:45;;;;;;;0.70;0.70;;;11.00;99.90;;;;;;5059086;28;20128;-84
2022/01/01 09:14:12;;;;;;;1.05;0.98;;;11.00;99.90;;;;;;5040368;28;20041;-83
2022/01/01 09:16:37;;;;;;;0.90;0.90;;;11.00;99.90;;;;;;5052661;28;20397;-83
2022/01/01 09:19:05;;;;;;;1.50;1.40;;;11.10;99.90;;;;;;5059802;28;20052;-83
2022/01/01 09:21:31;;;;;;;1.70;1.13;;;11.10;99.90;;;;;;5042860;28;20080;-83
2022/01/01 09:23:57;;;;;;;1.02;0.93;;;11.10;99.90;;;;;;5061127;28;20061;-83
2022/01/01 09:26:23;;;;;;;0.98;0.98;;;11.20;99.90;;;;;;5060429;28;20044;-84
2022/01/01 09:28:49;;;;;;;0.75;0.75;;;11.20;99.90;;;;;;5043558;28;20048;-84
2022/01/01 09:31:15;;;;;;;0.77;0.65;;;11.30;99.90;;;;;;5054564;28;20036;-84
2022/01/01 09:33:41;;;;;;;1.73;1.63;;;11.30;99.90;;;;;;5061141;28;20044;-84
2022/01/01 09:36:07;;;;;;;3.83;1.45;;;11.30;99.90;;;;;;5061040;28;20033;-83
2022/01/01 09:38:34;;;;;;;0.80;0.80;;;11.30;99.90;;;;;;5061063;28;20067;-85
2022/01/01 09:41:00;;;;;;;2.10;1.88;;;11.30;99.90;;;;;;5043697;28;20087;-84
2022/01/01 09:43:28;;;;;;;1.40;1.30;;;11.40;99.90;;;;;;5060500;28;20057;-84
2022/01/01 09:45:55;;;;;;;0.77;0.77;;;11.40;99.90;;;;;;5057829;28;20063;-84
2022/01/01 09:48:22;;;;;;;0.82;0.82;;;11.40;99.90;;;;;;5059708;28;20053;-83
2022/01/01 09:50:50;;;;;;;0.70;0.70;;;11.40;99.90;;;;;;5058977;28;20071;-84
2022/01/01 09:53:17;;;;;;;0.82;0.82;;;11.40;99.90;;;;;;5058660;28;20045;-84
2022/01/01 09:55:43;;;;;;;1.45;0.93;;;11.50;99.90;;;;;;5058227;28;20045;-84
2022/01/01 09:58:09;;;;;;;0.77;0.77;;;11.50;99.90;;;;;;5041555;28;20045;-84
2022/01/01 10:00:34;;;;;;;1.85;1.73;;;11.50;99.90;;;;;;5073747;28;20048;-84
2022/01/01 10:03:00;;;;;;;1.80;1.70;;;11.50;99.90;;;;;;5054001;28;20112;-84
2022/01/01 10:05:25;;;;;;;2.78;1.67;;;11.60;99.90;;;;;;5059436;28;20041;-84
2022/01/01 10:07:51;;;;;;;0.50;0.50;;;11.60;99.90;;;;;;5043383;28;20056;-85
2022/01/01 10:10:25;;;;;;;0.80;0.80;;;11.60;99.90;;;;;;5059072;28;20060;-84
2022/01/01 10:12:52;;;;;;;1.73;0.82;;;11.60;99.90;;;;;;5057481;28;20048;-84
2022/01/01 10:15:18;;;;;;;2.47;1.42;;;11.70;99.90;;;;;;5056370;28;20120;-84
2022/01/01 10:17:45;;;;;;;0.80;0.80;;;11.80;99.90;;;;;;5056875;28;20052;-84
2022/01/01 10:20:11;;;;;;;1.98;0.98;;;11.80;99.90;;;;;;5043925;28;20041;-84
2022/01/01 10:22:38;;;;;;;1.63;1.27;;;11.80;99.90;;;;;;5057510;28;20064;-84
2022/01/01 10:28:03;;;;;;;2.05;1.50;;;11.80;99.90;;;;;;5056353;28;20160;-84
2022/01/01 10:30:28;;;;;;;0.73;0.73;;;11.80;99.90;;;;;;5055263;28;20049;-84
2022/01/01 10:33:03;;;;;;;0.82;0.82;;;11.80;99.90;;;;;;5041784;28;20049;-84
2022/01/01 10:35:35;;;;;;;0.88;0.85;;;11.80;99.90;;;;;;5043913;28;20041;-83
2022/01/01 10:38:04;;;;;;;1.48;1.38;;;11.80;99.90;;;;;;5041562;28;20101;-84
2022/01/01 10:40:30;;;;;;;0.50;0.50;;;11.80;99.90;;;;;;5070605;28;20104;-84
2022/01/01 10:42:57;;;;;;;0.98;0.98;;;11.80;99.90;;;;;;5058313;28;20043;-84
2022/01/01 10:45:34;;;;;;;0.77;0.77;;;11.80;99.90;;;;;;5044348;28;20041;-84
2022/01/01 10:48:05;;;;;;;0.77;0.77;;;11.80;99.90;;;;;;5047297;28;20041;-84
2022/01/01 10:50:34;;;;;;;6.85;1.13;;;11.80;99.90;;;;;;5041901;28;20055;-85
2022/01/01 10:53:12;;;;;;;0.70;0.70;;;11.80;99.90;;;;;;5058514;28;20100;-84
2022/01/01 10:55:43;;;;;;;0.88;0.88;;;11.80;99.90;;;;;;5058823;28;20051;-85
2022/01/01 10:58:15;;;;;;;0.85;0.85;;;11.80;99.90;;;;;;5076469;28;20716;-84
2022/01/01 11:00:41;;;;;;;0.90;0.90;;;11.80;99.90;;;;;;5058594;28;20037;-85
2022/01/01 11:03:15;;;;;;;0.98;0.98;;;11.80;99.90;;;;;;5054619;28;20040;-84
2022/01/01 11:05:41;;;;;;;0.65;0.65;;;11.90;99.90;;;;;;5041175;28;20041;-84
2022/01/01 11:08:08;;;;;;;0.98;0.88;;;11.90;99.90;;;;;;5059802;28;20053;-84
2022/01/01 11:10:35;;;;;;;0.70;0.70;;;11.90;99.90;;;;;;5070602;28;20044;-85
2022/01/01 11:13:02;;;;;;;0.70;0.70;;;11.90;99.90;;;;;;5057347;28;20037;-85
2022/01/01 11:15:28;;;;;;;1.33;1.23;;;12.00;99.90;;;;;;5073213;28;20136;-85
2022/01/01 11:17:56;;;;;;;0.77;0.77;;;12.00;99.90;;;;;;5056666;28;20662;-85
2022/01/01 11:20:23;;;;;;;1.60;0.90;;;12.00;99.90;;;;;;5059599;28;20140;-84
2022/01/01 11:22:49;;;;;;;0.60;0.60;;;12.00;99.90;;;;;;5057646;28;20037;-85
2022/01/01 11:25:17;;;;;;;0.85;0.85;;;12.00;99.90;;;;;;5042342;28;20124;-85
2022/01/01 11:27:44;;;;;;;0.65;0.65;;;12.00;99.90;;;;;;5075460;28;20124;-85
2022/01/01 11:30:13;;;;;;;0.70;0.70;;;12.00;99.90;;;;;;5056690;28;20041;-85
2022/01/01 11:32:51;;;;;;;1.52;1.27;;;12.00;99.90;;;;;;5056452;28;20041;-85
2022/01/01 11:35:23;;;;;;;0.43;0.43;;;12.00;99.90;;;;;;5072773;28;20048;-84
2022/01/01 11:38:08;;;;;;;0.55;0.55;;;12.00;99.90;;;;;;5041125;28;20033;-85
2022/01/01 11:40:59;;;;;;;0.85;0.85;;;12.10;99.90;;;;;;5058140;28;20045;-85
2022/01/01 11:43:36;;;;;;;0.50;0.50;;;12.10;99.90;;;;;;5057099;28;20724;-85
2022/01/01 11:46:11;;;;;;;0.75;0.75;;;12.10;99.90;;;;;;5055532;28;20072;-85
2022/01/01 11:48:41;;;;;;;0.50;0.50;;;12.10;99.90;;;;;;5041249;28;20033;-85
2022/01/01 11:51:24;;;;;;;0.90;0.85;;;12.10;99.90;;;;;;5049918;28;20104;-84
2022/01/01 11:54:10;;;;;;;1.27;0.90;;;12.10;99.90;;;;;;5041161;28;20041;-85
2022/01/01 11:56:51;;;;;;;0.73;0.73;;;12.10;99.90;;;;;;5038986;28;20068;-85
2022/01/01 11:59:31;;;;;;;0.70;0.70;;;12.20;99.90;;;;;;5048917;28;20045;-84
2022/01/01 12:01:59;;;;;;;0.80;0.80;;;12.20;99.90;;;;;;5040059;28;20044;-85
2022/01/01 12:04:28;;;;;;;1.95;1.85;;;12.20;99.90;;;;;;5058325;28;20390;-85
2022/01/01 12:07:11;;;;;;;0.63;0.63;;;12.20;99.90;;;;;;5058918;28;20131;-85
2022/01/01 12:10:12;;;;;;;0.95;0.85;;;12.20;99.90;;;;;;5039288;28;20048;-85
2022/01/01 12:13:03;;;;;;;0.50;0.50;;;12.30;99.90;;;;;;5058548;28;20063;-85
2022/01/01 12:15:44;;;;;;;0.60;0.60;;;12.20;99.90;;;;;;5041389;28;20045;-85
2022/01/01 12:18:12;;;;;;;9.68;3.85;;;12.20;99.90;;;;;;5058921;28;20066;-83
2022/01/01 12:20:57;;;;;;;0.75;0.70;;;12.20;99.90;;;;;;5048298;28;20041;-85
2022/01/01 12:23:25;;;;;;;0.93;0.93;;;12.20;99.90;;;;;;5065220;28;20037;-85
2022/01/01 12:25:52;;;;;;;0.80;0.80;;;12.20;99.90;;;;;;5064125;28;20048;-85
2022/01/01 12:28:34;;;;;;;0.43;0.43;;;12.20;99.90;;;;;;5083602;28;20060;-85
2022/01/01 12:31:14;;;;;;;0.50;0.50;;;12.20;99.90;;;;;;5063139;28;20045;-85
2022/01/01 12:33:45;;;;;;;11.13;0.98;;;12.20;99.90;;;;;;5050315;28;20346;-85
2022/01/01 12:36:20;;;;;;;0.50;0.50;;;12.20;99.90;;;;;;5051568;28;20037;-85
2022/01/01 12:38:54;;;;;;;0.80;0.80;;;12.20;99.90;;;;;;5050353;28;20071;-85
2022/01/01 12:41:22;;;;;;;0.77;0.77;;;12.20;99.90;;;;;;5063077;28;20489;-85
2022/01/01 12:43:55;;;;;;;4.47;1.30;;;12.10;99.90;;;;;;5054293;28;20045;-85
2022/01/01 12:46:25;;;;;;;0.50;0.50;;;12.10;99.90;;;;;;5047681;28;20108;-85
2022/01/01 12:48:52;;;;;;;0.60;0.60;;;12.20;99.90;;;;;;5054128;28;20041;-84
2022/01/01 12:51:23;;;;;;;0.65;0.65;;;12.10;99.90;;;;;;5061584;28;20075;-84
2022/01/01 12:53:59;;;;;;;1.00;0.93;;;12.10;99.90;;;;;;5040595;28;20056;-85